sensor_id;sensor_type;location;lat;lon;timestamp;pressure;altitude;pressure_sealevel;temperature;humidity
8039;BME280;4062;49.844;8.120;2024-01-30T00:01:54;100644.91;;;13.27;54.33
8039;BME280;4062;49.844;8.120;2024-01-30T00:03:58;100647.56;;;13.27;54.43
8039;BME280;4062;49.844;8.120;2024-01-30T00:06:03;100653.78;;;13.27;54.45
8039;BME280;4062;49.844;8.120;2024-01-30T00:08:10;100658.19;;;13.27;54.44
8039;BME280;4062;49.844;8.120;2024-01-30T00:10:20;100651.16;;;13.26;54.40
8039;BME280;4062;49.844;8.120;2024-01-30T00:12:28;100652.88;;;13.27;54.44
8039;BME280;4062;49.844;8.120;2024-01-30T00:14:33;100650.22;;;13.27;54.30
8039;BME280;4062;49.844;8.120;2024-01-30T00:16:34;100650.25;;;13.25;54.33
8039;BME280;4062;49.844;8.120;2024-01-30T00:18:36;100652.00;;;13.26;54.46
8039;BME280;4062;49.844;8.120;2024-01-30T00:20:37;100650.25;;;13.25;54.41
8039;BME280;4062;49.844;8.120;2024-01-30T00:22:39;100652.00;;;13.26;54.51
8039;BME280;4062;49.844;8.120;2024-01-30T00:24:40;100649.34;;;13.26;54.53
8039;BME280;4062;49.844;8.120;2024-01-30T00:26:41;100653.81;;;13.26;54.37
8039;BME280;4062;49.844;8.120;2024-01-30T00:28:43;100650.25;;;13.25;54.44
8039;BME280;4062;49.844;8.120;2024-01-30T00:30:47;100647.59;;;13.25;54.43
8039;BME280;4062;49.844;8.120;2024-01-30T00:33:03;100642.28;;;13.25;54.52
8039;BME280;4062;49.844;8.120;2024-01-30T00:35:07;100652.94;;;13.24;54.58
8039;BME280;4062;49.844;8.120;2024-01-30T00:37:11;100649.38;;;13.23;54.62
8039;BME280;4062;49.844;8.120;2024-01-30T00:39:12;100645.88;;;13.23;54.49
8039;BME280;4062;49.844;8.120;2024-01-30T00:41:13;100648.53;;;13.23;54.58
8039;BME280;4062;49.844;8.120;2024-01-30T00:43:15;100648.53;;;13.23;54.47
8039;BME280;4062;49.844;8.120;2024-01-30T00:45:17;100652.03;;;13.23;54.46
8039;BME280;4062;49.844;8.120;2024-01-30T00:47:18;100647.66;;;13.22;54.39
8039;BME280;4062;49.844;8.120;2024-01-30T00:49:19;100643.22;;;13.23;54.48
8039;BME280;4062;49.844;8.120;2024-01-30T00:51:39;100641.47;;;13.22;54.42
8039;BME280;4062;49.844;8.120;2024-01-30T00:53:40;100640.56;;;13.23;54.48
8039;BME280;4062;49.844;8.120;2024-01-30T00:55:43;100645.00;;;13.22;54.62
8039;BME280;4062;49.844;8.120;2024-01-30T00:57:44;100642.34;;;13.22;54.60
8039;BME280;4062;49.844;8.120;2024-01-30T00:59:47;100647.66;;;13.22;54.49
8039;BME280;4062;49.844;8.120;2024-01-30T01:01:48;100653.84;;;13.23;54.43
8039;BME280;4062;49.844;8.120;2024-01-30T01:03:50;100649.38;;;13.23;54.49
8039;BME280;4062;49.844;8.120;2024-01-30T01:05:51;100649.38;;;13.23;54.34
8039;BME280;4062;49.844;8.120;2024-01-30T01:07:52;100644.09;;;13.23;54.40
8039;BME280;4062;49.844;8.120;2024-01-30T01:09:54;100643.22;;;13.23;54.35
8039;BME280;4062;49.844;8.120;2024-01-30T01:11:55;100651.16;;;13.24;54.51
8039;BME280;4062;49.844;8.120;2024-01-30T01:13:56;100644.97;;;13.24;54.47
8039;BME280;4062;49.844;8.120;2024-01-30T01:15:57;100642.31;;;13.24;54.44
8039;BME280;4062;49.844;8.120;2024-01-30T01:17:59;100642.31;;;13.24;54.40
8039;BME280;4062;49.844;8.120;2024-01-30T01:20:04;100647.63;;;13.24;54.38
8039;BME280;4062;49.844;8.120;2024-01-30T01:22:08;100645.84;;;13.24;54.37
8039;BME280;4062;49.844;8.120;2024-01-30T01:24:13;100641.44;;;13.23;54.32
8039;BME280;4062;49.844;8.120;2024-01-30T01:26:15;100647.63;;;13.24;54.41
8039;BME280;4062;49.844;8.120;2024-01-30T01:28:20;100653.81;;;13.24;54.41
8039;BME280;4062;49.844;8.120;2024-01-30T01:30:27;100644.09;;;13.23;54.22
8039;BME280;4062;49.844;8.120;2024-01-30T01:32:32;100649.38;;;13.23;54.33
8039;BME280;4062;49.844;8.120;2024-01-30T01:34:33;100647.63;;;13.24;54.46
8039;BME280;4062;49.844;8.120;2024-01-30T01:36:35;100642.31;;;13.24;54.42
8039;BME280;4062;49.844;8.120;2024-01-30T01:38:40;100652.94;;;13.24;54.44
8039;BME280;4062;49.844;8.120;2024-01-30T01:40:44;100647.63;;;13.24;54.39
8039;BME280;4062;49.844;8.120;2024-01-30T01:42:49;100650.28;;;13.24;54.08
8039;BME280;4062;49.844;8.120;2024-01-30T01:44:50;100649.38;;;13.23;54.43
8039;BME280;4062;49.844;8.120;2024-01-30T01:46:58;100645.84;;;13.24;54.46
8039;BME280;4062;49.844;8.120;2024-01-30T01:49:06;100649.38;;;13.23;54.35
8039;BME280;4062;49.844;8.120;2024-01-30T01:51:10;100651.19;;;13.23;54.41
8039;BME280;4062;49.844;8.120;2024-01-30T01:53:16;100647.63;;;13.24;54.38
8039;BME280;4062;49.844;8.120;2024-01-30T01:55:21;100644.97;;;13.24;54.38
8039;BME280;4062;49.844;8.120;2024-01-30T01:57:25;100642.31;;;13.24;54.41
8039;BME280;4062;49.844;8.120;2024-01-30T01:59:26;100639.66;;;13.24;54.40
8039;BME280;4062;49.844;8.120;2024-01-30T02:01:38;100637.88;;;13.24;54.45
8039;BME280;4062;49.844;8.120;2024-01-30T02:03:42;100645.84;;;13.24;54.37
8039;BME280;4062;49.844;8.120;2024-01-30T02:05:47;100650.28;;;13.24;54.47
8039;BME280;4062;49.844;8.120;2024-01-30T02:07:48;100641.44;;;13.23;54.22
8039;BME280;4062;49.844;8.120;2024-01-30T02:09:52;100635.22;;;13.24;54.38
8039;BME280;4062;49.844;8.120;2024-01-30T02:11:54;100633.47;;;13.23;54.38
8039;BME280;4062;49.844;8.120;2024-01-30T02:14:03;100631.72;;;13.24;54.28
8039;BME280;4062;49.844;8.120;2024-01-30T02:16:10;100634.38;;;13.24;54.33
8039;BME280;4062;49.844;8.120;2024-01-30T02:18:20;100631.72;;;13.24;54.38
8039;BME280;4062;49.844;8.120;2024-01-30T02:20:47;100632.59;;;13.23;54.35
8039;BME280;4062;49.844;8.120;2024-01-30T02:22:52;100630.81;;;13.23;54.42
8039;BME280;4062;49.844;8.120;2024-01-30T02:24:58;100630.81;;;13.23;54.35
8039;BME280;4062;49.844;8.120;2024-01-30T02:27:00;100628.16;;;13.23;54.36
8039;BME280;4062;49.844;8.120;2024-01-30T02:29:01;100629.94;;;13.23;54.41
8039;BME280;4062;49.844;8.120;2024-01-30T02:31:02;100629.06;;;13.24;54.47
8039;BME280;4062;49.844;8.120;2024-01-30T02:33:04;100630.81;;;13.23;54.28
8039;BME280;4062;49.844;8.120;2024-01-30T02:35:05;100634.38;;;13.24;54.34
8039;BME280;4062;49.844;8.120;2024-01-30T02:37:06;100627.31;;;13.23;54.41
8039;BME280;4062;49.844;8.120;2024-01-30T02:39:08;100630.81;;;13.23;54.40
8039;BME280;4062;49.844;8.120;2024-01-30T02:41:09;100629.06;;;13.24;54.11
8039;BME280;4062;49.844;8.120;2024-01-30T02:43:10;100633.47;;;13.23;54.36
8039;BME280;4062;49.844;8.120;2024-01-30T02:45:12;100631.75;;;13.22;54.39
8039;BME280;4062;49.844;8.120;2024-01-30T02:47:14;100630.81;;;13.23;54.38
8039;BME280;4062;49.844;8.120;2024-01-30T02:49:20;100629.94;;;13.23;54.38
8039;BME280;4062;49.844;8.120;2024-01-30T02:51:21;100636.13;;;13.23;54.41
8039;BME280;4062;49.844;8.120;2024-01-30T02:53:23;100637.06;;;13.22;54.43
8039;BME280;4062;49.844;8.120;2024-01-30T02:55:32;100632.59;;;13.23;54.41
8039;BME280;4062;49.844;8.120;2024-01-30T02:57:36;100629.94;;;13.23;54.52
8039;BME280;4062;49.844;8.120;2024-01-30T02:59:40;100632.59;;;13.23;54.46
8039;BME280;4062;49.844;8.120;2024-01-30T03:01:44;100620.19;;;13.23;54.34
8039;BME280;4062;49.844;8.120;2024-01-30T03:03:45;100630.81;;;13.23;54.34
8039;BME280;4062;49.844;8.120;2024-01-30T03:05:46;100625.50;;;13.23;54.45
8039;BME280;4062;49.844;8.120;2024-01-30T03:07:47;100622.00;;;13.23;54.43
8039;BME280;4062;49.844;8.120;2024-01-30T03:09:49;100624.66;;;13.23;54.48
8039;BME280;4062;49.844;8.120;2024-01-30T03:11:50;100622.84;;;13.23;54.33
8039;BME280;4062;49.844;8.120;2024-01-30T03:13:51;100622.00;;;13.23;54.41
8039;BME280;4062;49.844;8.120;2024-01-30T03:15:53;100622.00;;;13.23;54.29
8039;BME280;4062;49.844;8.120;2024-01-30T03:17:57;100622.00;;;13.23;54.43
8039;BME280;4062;49.844;8.120;2024-01-30T03:19:58;100627.31;;;13.23;54.33
8039;BME280;4062;49.844;8.120;2024-01-30T03:21:59;100620.22;;;13.22;54.42
8039;BME280;4062;49.844;8.120;2024-01-30T03:24:01;100621.13;;;13.22;54.39
8039;BME280;4062;49.844;8.120;2024-01-30T03:26:02;100630.84;;;13.22;54.36
8039;BME280;4062;49.844;8.120;2024-01-30T03:28:05;100626.44;;;13.22;54.41
8039;BME280;4062;49.844;8.120;2024-01-30T03:30:07;100624.69;;;13.21;54.36
8039;BME280;4062;49.844;8.120;2024-01-30T03:32:09;100623.78;;;13.22;54.45
8039;BME280;4062;49.844;8.120;2024-01-30T03:34:10;100621.13;;;13.22;54.39
8039;BME280;4062;49.844;8.120;2024-01-30T03:36:12;100615.81;;;13.22;54.30
8039;BME280;4062;49.844;8.120;2024-01-30T03:38:13;100617.56;;;13.22;54.39
8039;BME280;4062;49.844;8.120;2024-01-30T03:40:14;100613.16;;;13.22;54.22
8039;BME280;4062;49.844;8.120;2024-01-30T03:42:16;100614.94;;;13.22;54.37
8039;BME280;4062;49.844;8.120;2024-01-30T03:44:17;100620.22;;;13.22;54.47
8039;BME280;4062;49.844;8.120;2024-01-30T03:46:19;100621.13;;;13.22;54.48
8039;BME280;4062;49.844;8.120;2024-01-30T03:48:21;100615.81;;;13.21;54.42
8039;BME280;4062;49.844;8.120;2024-01-30T03:50:23;100617.56;;;13.22;54.29
8039;BME280;4062;49.844;8.120;2024-01-30T03:52:24;100617.56;;;13.22;54.33
8039;BME280;4062;49.844;8.120;2024-01-30T03:54:25;100616.72;;;13.21;54.38
8039;BME280;4062;49.844;8.120;2024-01-30T03:56:29;100614.06;;;13.21;54.43
8039;BME280;4062;49.844;8.120;2024-01-30T03:58:31;100614.06;;;13.21;54.36
8039;BME280;4062;49.844;8.120;2024-01-30T04:00:32;100620.22;;;13.22;54.50
8039;BME280;4062;49.844;8.120;2024-01-30T04:02:39;100615.81;;;13.21;54.49
8039;BME280;4062;49.844;8.120;2024-01-30T04:04:40;100613.16;;;13.21;54.47
8039;BME280;4062;49.844;8.120;2024-01-30T04:06:47;100608.75;;;13.21;54.49
8039;BME280;4062;49.844;8.120;2024-01-30T04:08:48;100607.00;;;13.20;54.34
8039;BME280;4062;49.844;8.120;2024-01-30T04:10:50;100602.56;;;13.21;54.50
8039;BME280;4062;49.844;8.120;2024-01-30T04:12:53;100605.22;;;13.21;54.42
8039;BME280;4062;49.844;8.120;2024-01-30T04:14:55;100608.75;;;13.20;54.45
8039;BME280;4062;49.844;8.120;2024-01-30T04:16:56;100610.50;;;13.21;54.49
8039;BME280;4062;49.844;8.120;2024-01-30T04:18:59;100610.50;;;13.21;54.38
8039;BME280;4062;49.844;8.120;2024-01-30T04:21:00;100609.66;;;13.20;54.48
8039;BME280;4062;49.844;8.120;2024-01-30T04:23:01;100607.00;;;13.20;54.43
8039;BME280;4062;49.844;8.120;2024-01-30T04:25:02;100616.72;;;13.20;54.43
8039;BME280;4062;49.844;8.120;2024-01-30T04:27:04;100616.72;;;13.20;54.41
8039;BME280;4062;49.844;8.120;2024-01-30T04:29:05;100616.72;;;13.20;54.33
8039;BME280;4062;49.844;8.120;2024-01-30T04:31:07;100609.66;;;13.19;54.50
8039;BME280;4062;49.844;8.120;2024-01-30T04:33:08;100612.31;;;13.20;54.38
8039;BME280;4062;49.844;8.120;2024-01-30T04:35:09;100618.50;;;13.19;54.44
8039;BME280;4062;49.844;8.120;2024-01-30T04:37:11;100619.38;;;13.20;54.34
8039;BME280;4062;49.844;8.120;2024-01-30T04:39:12;100621.16;;;13.19;54.41
8039;BME280;4062;49.844;8.120;2024-01-30T04:41:13;100614.06;;;13.20;54.40
8039;BME280;4062;49.844;8.120;2024-01-30T04:43:15;100619.38;;;13.20;54.43
8039;BME280;4062;49.844;8.120;2024-01-30T04:45:16;100615.84;;;13.19;54.36
8039;BME280;4062;49.844;8.120;2024-01-30T04:47:18;100622.03;;;13.20;54.48
8039;BME280;4062;49.844;8.120;2024-01-30T04:49:19;100618.50;;;13.19;54.46
8039;BME280;4062;49.844;8.120;2024-01-30T04:51:23;100627.34;;;13.20;54.56
8039;BME280;4062;49.844;8.120;2024-01-30T04:53:24;100628.22;;;13.19;54.43
8039;BME280;4062;49.844;8.120;2024-01-30T04:55:26;100624.69;;;13.20;54.50
8039;BME280;4062;49.844;8.120;2024-01-30T04:57:27;100617.63;;;13.19;54.49
8039;BME280;4062;49.844;8.120;2024-01-30T04:59:31;100621.16;;;13.19;54.42
8039;BME280;4062;49.844;8.120;2024-01-30T05:01:59;100620.28;;;13.19;54.44
8039;BME280;4062;49.844;8.120;2024-01-30T05:04:08;100620.28;;;13.19;54.30
8039;BME280;4062;49.844;8.120;2024-01-30T05:06:24;100618.50;;;13.19;54.36
8039;BME280;4062;49.844;8.120;2024-01-30T05:08:31;100620.28;;;13.19;54.43
8039;BME280;4062;49.844;8.120;2024-01-30T05:10:37;100620.28;;;13.19;54.44
8039;BME280;4062;49.844;8.120;2024-01-30T05:12:39;100624.72;;;13.18;54.57
8039;BME280;4062;49.844;8.120;2024-01-30T05:14:40;100620.28;;;13.19;54.50
8039;BME280;4062;49.844;8.120;2024-01-30T05:16:42;100620.28;;;13.19;54.42
8039;BME280;4062;49.844;8.120;2024-01-30T05:18:47;100619.41;;;13.18;54.39
8039;BME280;4062;49.844;8.120;2024-01-30T05:20:50;100629.16;;;13.18;54.56
8039;BME280;4062;49.844;8.120;2024-01-30T05:22:51;100630.91;;;13.17;54.40
8039;BME280;4062;49.844;8.120;2024-01-30T05:24:53;100630.03;;;13.18;54.33
8039;BME280;4062;49.844;8.120;2024-01-30T05:26:54;100621.19;;;13.18;54.37
8039;BME280;4062;49.844;8.120;2024-01-30T05:28:56;100634.47;;;13.18;54.53
8039;BME280;4062;49.844;8.120;2024-01-30T05:30:57;100627.38;;;13.18;54.51
8039;BME280;4062;49.844;8.120;2024-01-30T05:32:59;100630.03;;;13.18;54.45
8039;BME280;4062;49.844;8.120;2024-01-30T05:35:00;100625.59;;;13.17;54.43
8039;BME280;4062;49.844;8.120;2024-01-30T05:37:01;100626.50;;;13.18;54.54
8039;BME280;4062;49.844;8.120;2024-01-30T05:39:03;100628.25;;;13.17;54.57
8039;BME280;4062;49.844;8.120;2024-01-30T05:41:04;100624.75;;;13.17;54.44
8039;BME280;4062;49.844;8.120;2024-01-30T05:43:05;100622.91;;;13.19;54.42
8039;BME280;4062;49.844;8.120;2024-01-30T05:45:07;100620.31;;;13.17;54.36
8039;BME280;4062;49.844;8.120;2024-01-30T05:47:09;100627.38;;;13.18;54.45
8039;BME280;4062;49.844;8.120;2024-01-30T05:49:10;100615.84;;;13.19;54.31
8039;BME280;4062;49.844;8.120;2024-01-30T05:51:11;100619.38;;;13.20;54.43
8039;BME280;4062;49.844;8.120;2024-01-30T05:53:12;100623.81;;;13.19;54.43
8039;BME280;4062;49.844;8.120;2024-01-30T05:55:14;100624.69;;;13.20;54.41
8039;BME280;4062;49.844;8.120;2024-01-30T05:57:15;100621.16;;;13.19;54.24
8039;BME280;4062;49.844;8.120;2024-01-30T05:59:16;100618.50;;;13.19;54.28
8039;BME280;4062;49.844;8.120;2024-01-30T06:01:17;100616.72;;;13.20;54.27
8039;BME280;4062;49.844;8.120;2024-01-30T06:03:19;100618.47;;;13.21;54.38
8039;BME280;4062;49.844;8.120;2024-01-30T06:05:20;100619.38;;;13.20;54.34
8039;BME280;4062;49.844;8.120;2024-01-30T06:07:21;100614.06;;;13.20;54.45
8039;BME280;4062;49.844;8.120;2024-01-30T06:09:23;100622.03;;;13.20;54.36
8039;BME280;4062;49.844;8.120;2024-01-30T06:11:24;100622.03;;;13.20;54.40
8039;BME280;4062;49.844;8.120;2024-01-30T06:13:25;100623.81;;;13.19;54.36
8039;BME280;4062;49.844;8.120;2024-01-30T06:15:27;100628.22;;;13.20;54.37
8039;BME280;4062;49.844;8.120;2024-01-30T06:17:30;100630.88;;;13.20;54.45
8039;BME280;4062;49.844;8.120;2024-01-30T06:19:32;100633.53;;;13.20;54.43
8039;BME280;4062;49.844;8.120;2024-01-30T06:21:33;100628.22;;;13.20;54.37
8039;BME280;4062;49.844;8.120;2024-01-30T06:23:37;100634.41;;;13.21;54.36
8039;BME280;4062;49.844;8.120;2024-01-30T06:25:38;100626.44;;;13.21;54.41
8039;BME280;4062;49.844;8.120;2024-01-30T06:27:40;100635.28;;;13.21;54.30
8039;BME280;4062;49.844;8.120;2024-01-30T06:29:42;100630.84;;;13.22;54.47
8039;BME280;4062;49.844;8.120;2024-01-30T06:31:44;100630.84;;;13.22;54.35
8039;BME280;4062;49.844;8.120;2024-01-30T06:33:47;100636.16;;;13.22;54.50
8039;BME280;4062;49.844;8.120;2024-01-30T06:35:49;100637.06;;;13.22;54.47
8039;BME280;4062;49.844;8.120;2024-01-30T06:37:50;100646.78;;;13.22;54.48
8039;BME280;4062;49.844;8.120;2024-01-30T06:39:51;100637.06;;;13.22;54.41
8039;BME280;4062;49.844;8.120;2024-01-30T06:41:53;100648.53;;;13.23;54.53
8039;BME280;4062;49.844;8.120;2024-01-30T06:43:54;100645.88;;;13.23;54.42
8039;BME280;4062;49.844;8.120;2024-01-30T06:45:56;100637.00;;;13.24;54.34
8039;BME280;4062;49.844;8.120;2024-01-30T06:47:57;100638.78;;;13.23;54.46
8039;BME280;4062;49.844;8.120;2024-01-30T06:49:58;100642.31;;;13.24;54.42
8039;BME280;4062;49.844;8.120;2024-01-30T06:52:00;100636.13;;;13.23;54.49
8039;BME280;4062;49.844;8.120;2024-01-30T06:54:01;100642.31;;;13.24;54.45
8039;BME280;4062;49.844;8.120;2024-01-30T06:56:03;100644.09;;;13.23;54.40
8039;BME280;4062;49.844;8.120;2024-01-30T06:58:04;100641.44;;;13.23;54.47
8039;BME280;4062;49.844;8.120;2024-01-30T07:00:06;100640.53;;;13.24;54.50
8039;BME280;4062;49.844;8.120;2024-01-30T07:02:07;100634.38;;;13.24;54.47
8039;BME280;4062;49.844;8.120;2024-01-30T07:04:08;100637.88;;;13.24;54.42
8039;BME280;4062;49.844;8.120;2024-01-30T07:06:10;100639.66;;;13.24;54.44
8039;BME280;4062;49.844;8.120;2024-01-30T07:08:16;100640.53;;;13.24;54.45
8039;BME280;4062;49.844;8.120;2024-01-30T07:10:20;100637.00;;;13.24;54.45
8039;BME280;4062;49.844;8.120;2024-01-30T07:12:21;100635.22;;;13.24;54.47
8039;BME280;4062;49.844;8.120;2024-01-30T07:14:22;100638.78;;;13.23;54.36
8039;BME280;4062;49.844;8.120;2024-01-30T07:16:23;100641.44;;;13.25;54.36
8039;BME280;4062;49.844;8.120;2024-01-30T07:18:25;100646.72;;;13.25;54.37
8039;BME280;4062;49.844;8.120;2024-01-30T07:20:26;100645.84;;;13.24;54.34
8039;BME280;4062;49.844;8.120;2024-01-30T07:22:28;100645.84;;;13.24;54.44
8039;BME280;4062;49.844;8.120;2024-01-30T07:24:29;100647.63;;;13.24;54.26
8039;BME280;4062;49.844;8.120;2024-01-30T07:26:31;100655.59;;;13.24;54.38
8039;BME280;4062;49.844;8.120;2024-01-30T07:28:33;100651.16;;;13.24;54.15
8039;BME280;4062;49.844;8.120;2024-01-30T07:30:44;100649.38;;;13.23;54.41
8039;BME280;4062;49.844;8.120;2024-01-30T07:32:46;100650.28;;;13.24;54.40
8039;BME280;4062;49.844;8.120;2024-01-30T07:34:49;100650.28;;;13.24;54.38
8039;BME280;4062;49.844;8.120;2024-01-30T07:36:50;100641.44;;;13.23;54.38
8039;BME280;4062;49.844;8.120;2024-01-30T07:38:51;100649.38;;;13.23;54.28
8039;BME280;4062;49.844;8.120;2024-01-30T07:40:55;100646.75;;;13.23;54.40
8039;BME280;4062;49.844;8.120;2024-01-30T07:42:56;100646.75;;;13.23;54.29
8039;BME280;4062;49.844;8.120;2024-01-30T07:44:57;100650.28;;;13.24;54.27
8039;BME280;4062;49.844;8.120;2024-01-30T07:46:59;100654.69;;;13.23;54.35
8039;BME280;4062;49.844;8.120;2024-01-30T07:49:00;100652.94;;;13.24;54.39
8039;BME280;4062;49.844;8.120;2024-01-30T07:51:02;100654.69;;;13.23;54.32
8039;BME280;4062;49.844;8.120;2024-01-30T07:53:05;100653.84;;;13.23;54.28
8039;BME280;4062;49.844;8.120;2024-01-30T07:55:06;100663.56;;;13.24;54.32
8039;BME280;4062;49.844;8.120;2024-01-30T07:57:09;100663.56;;;13.24;54.31
8039;BME280;4062;49.844;8.120;2024-01-30T07:59:11;100667.06;;;13.24;54.32
8039;BME280;4062;49.844;8.120;2024-01-30T08:01:14;100662.66;;;13.23;54.26
8039;BME280;4062;49.844;8.120;2024-01-30T08:03:15;100667.09;;;13.23;54.32
8039;BME280;4062;49.844;8.120;2024-01-30T08:05:19;100664.44;;;13.23;54.19
8039;BME280;4062;49.844;8.120;2024-01-30T08:07:20;100663.59;;;13.22;54.40
8039;BME280;4062;49.844;8.120;2024-01-30T08:09:23;100659.16;;;13.23;54.32
8039;BME280;4062;49.844;8.120;2024-01-30T08:11:24;100670.66;;;13.22;54.37
8039;BME280;4062;49.844;8.120;2024-01-30T08:13:28;100663.59;;;13.22;54.32
8039;BME280;4062;49.844;8.120;2024-01-30T08:15:32;100665.34;;;13.22;54.33
8039;BME280;4062;49.844;8.120;2024-01-30T08:17:39;100679.50;;;13.22;54.33
8039;BME280;4062;49.844;8.120;2024-01-30T08:19:49;100671.56;;;13.22;54.42
8039;BME280;4062;49.844;8.120;2024-01-30T08:21:55;100682.16;;;13.22;54.45
8039;BME280;4062;49.844;8.120;2024-01-30T08:24:09;100669.78;;;13.21;54.33
8039;BME280;4062;49.844;8.120;2024-01-30T08:26:19;100671.56;;;13.21;54.46
8039;BME280;4062;49.844;8.120;2024-01-30T08:28:26;100680.41;;;13.21;54.31
8039;BME280;4062;49.844;8.120;2024-01-30T08:30:29;100676.84;;;13.21;54.34
8039;BME280;4062;49.844;8.120;2024-01-30T08:32:33;100677.75;;;13.21;54.34
8039;BME280;4062;49.844;8.120;2024-01-30T08:34:43;100674.22;;;13.22;54.34
8039;BME280;4062;49.844;8.120;2024-01-30T08:36:54;100679.50;;;13.22;54.21
8039;BME280;4062;49.844;8.120;2024-01-30T08:38:59;100669.75;;;13.23;54.21
8039;BME280;4062;49.844;8.120;2024-01-30T08:41:01;100675.06;;;13.23;54.34
8039;BME280;4062;49.844;8.120;2024-01-30T08:43:16;100674.22;;;13.22;54.39
8039;BME280;4062;49.844;8.120;2024-01-30T08:45:22;100683.03;;;13.23;54.40
8039;BME280;4062;49.844;8.120;2024-01-30T08:47:24;100682.13;;;13.24;54.40
8039;BME280;4062;49.844;8.120;2024-01-30T08:49:28;100681.25;;;13.23;54.14
8039;BME280;4062;49.844;8.120;2024-01-30T08:51:30;100685.66;;;13.24;54.40
8039;BME280;4062;49.844;8.120;2024-01-30T08:53:31;100679.47;;;13.24;54.45
8039;BME280;4062;49.844;8.120;2024-01-30T08:55:32;100677.69;;;13.26;54.32
8039;BME280;4062;49.844;8.120;2024-01-30T08:57:34;100669.72;;;13.24;54.42
8039;BME280;4062;49.844;8.120;2024-01-30T08:59:35;100678.59;;;13.23;54.38
8039;BME280;4062;49.844;8.120;2024-01-30T09:01:36;100673.28;;;13.25;54.34
8039;BME280;4062;49.844;8.120;2024-01-30T09:03:37;100674.13;;;13.25;54.43
8039;BME280;4062;49.844;8.120;2024-01-30T09:05:41;100668.88;;;13.24;54.27
8039;BME280;4062;49.844;8.120;2024-01-30T09:07:45;100674.19;;;13.24;54.37
8039;BME280;4062;49.844;8.120;2024-01-30T09:09:49;100680.34;;;13.24;54.34
8039;BME280;4062;49.844;8.120;2024-01-30T09:11:53;100681.25;;;13.25;54.45
8039;BME280;4062;49.844;8.120;2024-01-30T09:14:05;100672.38;;;13.24;54.40
8039;BME280;4062;49.844;8.120;2024-01-30T09:16:09;100675.94;;;13.25;54.31
8039;BME280;4062;49.844;8.120;2024-01-30T09:18:13;100675.94;;;13.25;54.36
8039;BME280;4062;49.844;8.120;2024-01-30T09:20:19;100682.09;;;13.25;54.30
8039;BME280;4062;49.844;8.120;2024-01-30T09:22:28;100680.34;;;13.24;54.33
8039;BME280;4062;49.844;8.120;2024-01-30T09:24:33;100677.69;;;13.24;54.41
8039;BME280;4062;49.844;8.120;2024-01-30T09:26:37;100682.13;;;13.24;54.28
8039;BME280;4062;49.844;8.120;2024-01-30T09:28:39;100684.75;;;13.25;54.37
8039;BME280;4062;49.844;8.120;2024-01-30T09:30:40;100689.19;;;13.25;54.34
8039;BME280;4062;49.844;8.120;2024-01-30T09:32:42;100696.25;;;13.26;54.32
8039;BME280;4062;49.844;8.120;2024-01-30T09:34:44;100693.63;;;13.24;54.45
8039;BME280;4062;49.844;8.120;2024-01-30T09:36:45;100695.41;;;13.24;54.38
8039;BME280;4062;49.844;8.120;2024-01-30T09:38:47;100696.25;;;13.24;54.39
8039;BME280;4062;49.844;8.120;2024-01-30T09:40:55;100701.56;;;13.24;54.28
8039;BME280;4062;49.844;8.120;2024-01-30T09:42:59;100704.22;;;13.24;54.35
8039;BME280;4062;49.844;8.120;2024-01-30T09:45:02;100704.22;;;13.24;54.37
8039;BME280;4062;49.844;8.120;2024-01-30T09:47:04;100709.53;;;13.24;54.35
8039;BME280;4062;49.844;8.120;2024-01-30T09:49:07;100706.88;;;13.24;54.34
8039;BME280;4062;49.844;8.120;2024-01-30T09:51:10;100700.72;;;13.24;54.28
8039;BME280;4062;49.844;8.120;2024-01-30T09:53:13;100706.03;;;13.24;54.41
8039;BME280;4062;49.844;8.120;2024-01-30T09:55:15;100705.13;;;13.25;54.40
8039;BME280;4062;49.844;8.120;2024-01-30T09:57:16;100703.38;;;13.24;54.34
8039;BME280;4062;49.844;8.120;2024-01-30T09:59:18;100706.03;;;13.24;54.31
8039;BME280;4062;49.844;8.120;2024-01-30T10:01:19;100697.16;;;13.23;54.18
8039;BME280;4062;49.844;8.120;2024-01-30T10:03:26;100692.75;;;13.24;54.41
8039;BME280;4062;49.844;8.120;2024-01-30T10:05:32;100696.31;;;13.23;54.30
8039;BME280;4062;49.844;8.120;2024-01-30T10:07:35;100691.84;;;13.23;54.28
8039;BME280;4062;49.844;8.120;2024-01-30T10:09:37;100686.53;;;13.23;54.41
8039;BME280;4062;49.844;8.120;2024-01-30T10:11:39;100691.00;;;13.23;54.32
8039;BME280;4062;49.844;8.120;2024-01-30T10:13:40;100690.09;;;13.24;54.35
8039;BME280;4062;49.844;8.120;2024-01-30T10:15:42;100685.69;;;13.23;54.38
8039;BME280;4062;49.844;8.120;2024-01-30T10:17:44;100691.00;;;13.23;54.32
8039;BME280;4062;49.844;8.120;2024-01-30T10:22:26;100691.88;;;13.22;54.36
8039;BME280;4062;49.844;8.120;2024-01-30T10:24:28;100688.34;;;13.23;54.34
8039;BME280;4062;49.844;8.120;2024-01-30T10:26:31;100688.34;;;13.23;54.59
8039;BME280;4062;49.844;8.120;2024-01-30T10:28:35;100691.03;;;13.21;54.38
8039;BME280;4062;49.844;8.120;2024-01-30T10:30:36;100699.00;;;13.21;54.41
8039;BME280;4062;49.844;8.120;2024-01-30T10:32:37;100702.50;;;13.22;54.33
8039;BME280;4062;49.844;8.120;2024-01-30T10:34:39;100697.22;;;13.20;54.52
8039;BME280;4062;49.844;8.120;2024-01-30T10:36:41;100705.19;;;13.20;54.51
8039;BME280;4062;49.844;8.120;2024-01-30T10:38:46;100708.72;;;13.21;54.40
8039;BME280;4062;49.844;8.120;2024-01-30T10:40:53;100704.28;;;13.21;54.31
8039;BME280;4062;49.844;8.120;2024-01-30T10:42:59;100706.06;;;13.22;54.46
8039;BME280;4062;49.844;8.120;2024-01-30T10:45:09;100707.81;;;13.22;54.35
8039;BME280;4062;49.844;8.120;2024-01-30T10:47:12;100706.06;;;13.22;54.34
8039;BME280;4062;49.844;8.120;2024-01-30T10:49:24;100705.13;;;13.23;54.33
8039;BME280;4062;49.844;8.120;2024-01-30T10:51:49;100699.81;;;13.23;54.42
8039;BME280;4062;49.844;8.120;2024-01-30T10:54:07;100697.16;;;13.23;54.29
8039;BME280;4062;49.844;8.120;2024-01-30T10:56:22;100693.66;;;13.23;54.35
8039;BME280;4062;49.844;8.120;2024-01-30T10:58:30;100696.25;;;13.24;54.37
8039;BME280;4062;49.844;8.120;2024-01-30T11:00:32;100698.06;;;13.24;54.33
8039;BME280;4062;49.844;8.120;2024-01-30T11:02:46;100684.78;;;13.24;54.40
8039;BME280;4062;49.844;8.120;2024-01-30T11:04:54;100675.03;;;13.24;54.23